Terminal Aerodrome Forecast
Issued by NWS

Home | Current Version | Previous Version | Text Only | Print | Product List | Glossary On
Versions: 1 2 3 4 5 6 7 8 9 10 11 12 13
000
FTUS46 KSTO 281100
TAFSCK
TAF
KSCK 281136Z 2812/0112 23005KT P6SM BKN070
      TEMPO 2821/0101 P6SM -SHRA BKN050 BKN100 OVC250
     FM010300 32004KT P6SM SCT100 BKN250=

USA.gov is the U.S. government's official web portal to all federal, state and local government web resources and services.